Time;durP1;ratioP1;P1;durP2;ratioP2;P2;SDS_P1;SDS_P2;PMS_P1;PMS_P2;Temp;Humidity;BMP_temperature;BMP_pressure;BME280_temperature;BME280_humidity;BME280_pressure;Samples;Min_cycle;Max_cycle;Signal;HPM_P1;HPM_P2
2023/09/06 00:01:13;;;;;;;3.45;2.20;;;;;;;16.71;100.00;96627.03;5036031;28;20201;-70
2023/09/06 00:03:40;;;;;;;3.95;2.20;;;;;;;16.75;100.00;96624.78;5035800;28;20201;-70
2023/09/06 00:06:08;;;;;;;4.82;2.63;;;;;;;17.45;100.00;96621.22;5035650;28;20232;-70
2023/09/06 00:08:34;;;;;;;7.70;2.08;;;;;;;17.28;100.00;96617.34;5035160;28;20363;-70
2023/09/06 00:11:06;;;;;;;4.22;2.25;;;;;;;17.34;100.00;96619.19;5035771;28;20205;-70
2023/09/06 00:13:34;;;;;;;3.42;1.95;;;;;;;17.61;100.00;96614.59;5036102;28;20205;-70
2023/09/06 00:16:01;;;;;;;4.40;2.28;;;;;;;16.91;100.00;96621.69;5035380;28;20212;-70
2023/09/06 00:18:28;;;;;;;6.18;2.88;;;;;;;16.79;100.00;96616.19;5035534;28;20233;-70
2023/09/06 00:20:57;;;;;;;4.95;2.13;;;;;;;16.78;100.00;96605.75;5035796;28;20212;-70
2023/09/06 00:23:25;;;;;;;4.53;2.72;;;;;;;16.57;100.00;96605.94;5035730;28;20205;-70
2023/09/06 00:25:53;;;;;;;4.20;2.30;;;;;;;16.25;100.00;96608.56;5038170;28;21058;-70
2023/09/06 00:28:19;;;;;;;3.33;2.15;;;;;;;16.09;100.00;96612.41;5039854;28;20235;-70
2023/09/06 00:30:46;;;;;;;3.78;2.08;;;;;;;16.03;100.00;96615.06;5039675;28;20201;-70
2023/09/06 00:33:13;;;;;;;3.10;2.20;;;;;;;15.97;100.00;96622.00;5039968;28;20208;-69
2023/09/06 00:35:40;;;;;;;6.13;2.95;;;;;;;15.94;100.00;96621.59;5039332;28;20300;-70
2023/09/06 00:38:06;;;;;;;4.00;2.38;;;;;;;15.91;100.00;96625.47;5038835;28;20227;-70
2023/09/06 00:40:36;;;;;;;4.07;2.13;;;;;;;16.16;100.00;96628.38;5039621;28;20205;-69
2023/09/06 00:43:05;;;;;;;6.85;2.80;;;;;;;16.04;100.00;96622.84;5040149;28;20287;-69
2023/09/06 00:45:37;;;;;;;4.82;2.47;;;;;;;16.23;100.00;96616.75;5038523;28;20204;-70
2023/09/06 00:48:05;;;;;;;4.53;2.30;;;;;;;16.25;100.00;96620.00;5038611;28;20224;-70
2023/09/06 00:50:34;;;;;;;5.90;2.80;;;;;;;16.12;100.00;96614.66;5038822;28;20209;-70
2023/09/06 00:53:01;;;;;;;3.70;2.17;;;;;;;16.07;100.00;96622.41;5039888;28;20203;-70
2023/09/06 00:55:27;;;;;;;3.90;1.83;;;;;;;15.89;100.00;96627.50;5037948;28;20321;-70
2023/09/06 00:57:55;;;;;;;4.00;2.35;;;;;;;16.07;100.00;96617.09;5039166;28;20225;-70
2023/09/06 01:00:24;;;;;;;3.28;2.28;;;;;;;15.80;100.00;96613.78;5039191;28;20216;-69
2023/09/06 01:02:51;;;;;;;6.40;2.80;;;;;;;15.92;100.00;96608.50;5038930;28;20263;-70
2023/09/06 01:05:19;;;;;;;3.92;2.38;;;;;;;15.96;100.00;96604.41;5039232;28;20202;-70
2023/09/06 01:07:50;;;;;;;4.75;2.33;;;;;;;15.81;100.00;96612.75;5038672;28;20228;-70
2023/09/06 01:10:17;;;;;;;4.63;2.25;;;;;;;15.87;100.00;96608.28;5038514;28;20216;-70
2023/09/06 01:12:43;;;;;;;5.50;2.17;;;;;;;15.88;100.00;96612.59;5038430;28;20201;-70
2023/09/06 01:15:12;;;;;;;5.22;2.50;;;;;;;16.08;100.00;96607.31;5038458;28;20211;-70
2023/09/06 01:17:41;;;;;;;3.30;2.30;;;;;;;15.99;100.00;96611.19;5038411;28;20914;-70
2023/09/06 01:20:15;;;;;;;4.43;2.40;;;;;;;15.75;100.00;96605.59;5039356;28;20201;-70
2023/09/06 01:22:47;;;;;;;5.68;2.35;;;;;;;15.74;100.00;96603.94;5038603;28;20287;-70
2023/09/06 01:25:16;;;;;;;6.35;2.80;;;;;;;15.53;100.00;96606.72;5038893;28;20205;-70
2023/09/06 01:27:43;;;;;;;5.47;2.30;;;;;;;15.46;100.00;96605.88;5038110;28;20708;-70
2023/09/06 01:30:11;;;;;;;4.82;2.55;;;;;;;15.51;100.00;96600.78;5039146;28;20205;-69
2023/09/06 01:32:39;;;;;;;3.72;2.40;;;;;;;15.48;100.00;96609.16;5038617;28;20207;-70
2023/09/06 01:35:09;;;;;;;5.00;2.15;;;;;;;15.43;100.00;96607.09;5038346;28;20208;-70
2023/09/06 01:37:37;;;;;;;5.80;2.40;;;;;;;15.36;100.00;96613.38;5036782;28;20225;-70
2023/09/06 01:40:12;;;;;;;3.28;1.88;;;;;;;15.39;100.00;96605.03;5038870;28;20293;-69
2023/09/06 01:42:40;;;;;;;5.18;2.80;;;;;;;15.53;100.00;96596.09;5038053;28;20196;-70
2023/09/06 01:45:07;;;;;;;8.88;1.98;;;;;;;15.36;100.00;96594.78;5038742;28;20254;-70
2023/09/06 01:47:34;;;;;;;4.05;2.53;;;;;;;15.14;100.00;96598.53;5037220;28;20758;-70
2023/09/06 01:50:00;;;;;;;4.05;2.00;;;;;;;15.07;100.00;96595.03;5038683;28;20201;-70
2023/09/06 01:52:27;;;;;;;3.95;2.00;;;;;;;15.06;100.00;96601.34;5037567;28;20967;-70
2023/09/06 01:54:54;;;;;;;4.78;2.35;;;;;;;15.18;100.00;96591.81;5039164;28;20208;-70
2023/09/06 01:57:20;;;;;;;4.25;2.25;;;;;;;15.08;100.00;96586.03;5037458;28;20243;-69
2023/09/06 02:04:51;;;;;;;4.05;2.00;;;;;;;15.51;100.00;96588.31;5003253;28;20234;-73
2023/09/06 02:07:18;;;;;;;4.57;2.20;;;;;;;15.11;100.00;96590.13;5014384;28;20672;-73
2023/09/06 02:09:44;;;;;;;3.95;2.10;;;;;;;15.21;100.00;96593.28;5010497;28;20211;-73
2023/09/06 02:12:10;;;;;;;4.57;2.65;;;;;;;15.15;100.00;96592.22;5011331;28;20214;-73
2023/09/06 02:14:37;;;;;;;5.10;2.50;;;;;;;15.21;100.00;96591.47;5013976;28;20217;-73
2023/09/06 02:17:03;;;;;;;3.58;2.33;;;;;;;15.28;100.00;96582.50;5019374;28;20226;-73
2023/09/06 02:19:30;;;;;;;22.15;3.35;;;;;;;15.22;100.00;96590.44;5018715;28;20202;-73
2023/09/06 02:22:01;;;;;;;4.93;2.83;;;;;;;15.54;100.00;96587.09;5019446;28;20214;-73
2023/09/06 02:24:27;;;;;;;4.57;2.47;;;;;;;15.38;100.00;96592.78;5022447;28;20264;-73
2023/09/06 02:26:54;;;;;;;3.47;2.33;;;;;;;15.34;100.00;96583.56;5020110;28;20206;-73
2023/09/06 02:29:20;;;;;;;4.82;2.47;;;;;;;15.29;100.00;96589.44;5021416;28;20202;-73
2023/09/06 02:31:46;;;;;;;3.63;2.22;;;;;;;15.30;100.00;96590.28;5014055;28;20209;-73
2023/09/06 02:34:13;;;;;;;4.55;2.70;;;;;;;15.34;100.00;96587.03;5023562;28;20715;-73
2023/09/06 02:36:39;;;;;;;5.28;2.70;;;;;;;15.42;100.00;96599.31;5017339;28;20587;-73
2023/09/06 02:39:07;;;;;;;4.43;2.20;;;;;;;15.57;100.00;96597.34;5019685;28;20245;-73
2023/09/06 02:41:33;;;;;;;5.07;2.50;;;;;;;15.39;100.00;96599.72;5022000;28;20667;-73
2023/09/06 02:43:59;;;;;;;4.50;2.50;;;;;;;15.54;100.00;96603.03;5019672;28;20226;-73
2023/09/06 02:46:29;;;;;;;8.23;2.90;;;;;;;15.57;100.00;96605.31;5017389;28;20587;-73
2023/09/06 02:48:58;;;;;;;5.78;2.95;;;;;;;15.27;100.00;96607.44;5019228;28;20672;-73
2023/09/06 02:51:29;;;;;;;6.20;2.20;;;;;;;15.06;100.00;96604.00;5016360;28;20209;-73
2023/09/06 02:53:57;;;;;;;4.28;2.25;;;;;;;14.98;100.00;96606.81;5020448;28;20237;-73
2023/09/06 02:56:24;;;;;;;3.65;2.00;;;;;;;15.05;100.00;96602.38;5018795;28;20773;-73
2023/09/06 02:58:51;;;;;;;5.93;2.38;;;;;;;15.02;100.00;96605.41;5019282;28;20221;-73
2023/09/06 03:01:20;;;;;;;5.03;2.35;;;;;;;14.99;100.00;96599.66;5017968;28;20217;-73
2023/09/06 03:03:48;;;;;;;6.07;2.90;;;;;;;15.98;100.00;96589.06;5021262;28;20245;-73
2023/09/06 03:06:17;;;;;;;5.45;2.72;;;;;;;15.80;100.00;96595.19;5015530;28;20202;-73
2023/09/06 03:08:44;;;;;;;4.45;2.35;;;;;;;15.75;100.00;96594.97;5025030;28;20208;-73
2023/09/06 03:11:14;;;;;;;3.95;2.22;;;;;;;15.71;100.00;96607.81;5019690;28;20202;-73
2023/09/06 03:13:42;;;;;;;4.18;2.60;;;;;;;15.98;100.00;96597.03;5024296;28;20225;-73
2023/09/06 03:16:13;;;;;;;5.47;2.75;;;;;;;15.94;100.00;96602.97;5018645;28;20210;-73
2023/09/06 03:18:40;;;;;;;4.38;2.42;;;;;;;15.69;100.00;96607.19;5022641;28;20222;-73
2023/09/06 03:21:06;;;;;;;3.25;2.13;;;;;;;15.53;100.00;96612.84;5018764;28;20202;-73
2023/09/06 03:23:33;;;;;;;4.68;2.67;;;;;;;15.66;100.00;96618.22;5017239;28;20718;-73
2023/09/06 03:25:59;;;;;;;4.32;2.80;;;;;;;15.27;100.00;96622.53;5019360;28;20206;-73
2023/09/06 03:28:26;;;;;;;5.28;2.70;;;;;;;14.89;100.00;96623.91;5017096;28;20206;-73
2023/09/06 03:30:58;;;;;;;5.07;2.47;;;;;;;14.91;100.00;96621.88;5016866;28;20205;-73
2023/09/06 03:33:25;;;;;;;5.40;2.65;;;;;;;14.83;100.00;96623.88;5016631;28;20234;-73
2023/09/06 03:35:51;;;;;;;3.10;2.20;;;;;;;14.77;100.00;96620.13;5021151;28;20201;-73
2023/09/06 03:38:20;;;;;;;3.90;2.15;;;;;;;14.83;100.00;96616.72;5022390;28;20222;-73
2023/09/06 03:40:49;;;;;;;5.82;2.65;;;;;;;14.86;100.00;96624.28;5016215;28;20281;-73
2023/09/06 03:43:16;;;;;;;4.90;2.10;;;;;;;14.86;100.00;96624.28;5023084;28;20226;-73
2023/09/06 03:45:45;;;;;;;3.58;2.05;;;;;;;14.80;100.00;96619.78;5022121;28;20213;-73
2023/09/06 03:48:14;;;;;;;3.35;2.15;;;;;;;15.01;100.00;96626.84;5020146;28;20265;-73
2023/09/06 03:50:41;;;;;;;3.85;1.92;;;;;;;14.72;100.00;96619.09;5022578;28;20288;-73
2023/09/06 03:53:07;;;;;;;4.03;2.10;;;;;;;14.70;100.00;96618.44;5020874;28;20222;-72
2023/09/06 03:55:34;;;;;;;4.50;2.53;;;;;;;14.66;100.00;96617.19;5022155;28;20210;-73
2023/09/06 03:58:03;;;;;;;4.25;2.25;;;;;;;14.66;100.00;96619.84;5021389;28;20252;-73
2023/09/06 04:00:31;;;;;;;3.92;2.25;;;;;;;14.43;100.00;96623.75;5013568;28;20240;-73
2023/09/06 04:02:57;;;;;;;3.97;2.13;;;;;;;14.51;100.00;96623.59;5019870;28;20226;-73
2023/09/06 04:05:27;;;;;;;4.43;2.15;;;;;;;14.64;100.00;96620.03;5021473;28;20214;-73
2023/09/06 04:07:56;;;;;;;2.83;2.00;;;;;;;14.72;100.00;96621.75;5018859;28;20194;-73
2023/09/06 04:10:23;;;;;;;3.88;2.30;;;;;;;14.53;100.00;96609.13;5020070;28;20218;-73
2023/09/06 04:12:53;;;;;;;3.80;2.63;;;;;;;14.63;100.00;96618.41;5021016;28;20222;-73
2023/09/06 04:15:21;;;;;;;5.57;1.95;;;;;;;14.54;100.00;96612.63;5021323;28;20286;-72
2023/09/06 04:17:49;;;;;;;3.65;2.25;;;;;;;14.63;100.00;96616.78;5023663;28;20226;-73
2023/09/06 04:20:19;;;;;;;3.30;2.10;;;;;;;14.41;100.00;96612.50;5015529;28;20217;-74
2023/09/06 04:22:48;;;;;;;3.50;2.17;;;;;;;14.52;100.00;96620.75;5020955;28;20657;-73
2023/09/06 04:25:16;;;;;;;4.95;2.17;;;;;;;14.24;100.00;96611.97;5021009;28;20210;-73
2023/09/06 04:27:44;;;;;;;4.75;2.35;;;;;;;14.37;100.00;96611.25;5021793;28;20670;-73
2023/09/06 04:30:13;;;;;;;4.75;2.28;;;;;;;14.34;100.00;96614.28;5016799;28;20202;-73
2023/09/06 04:32:39;;;;;;;4.90;2.97;;;;;;;14.31;100.00;96607.53;5021830;28;20390;-74
2023/09/06 04:35:07;;;;;;;6.37;3.03;;;;;;;14.46;100.00;96610.09;5020478;28;20207;-73
2023/09/06 04:37:35;;;;;;;3.80;2.33;;;;;;;14.28;100.00;96620.34;5021934;28;20264;-73
2023/09/06 04:40:04;;;;;;;3.63;2.20;;;;;;;14.43;100.00;96615.78;5021087;28;20240;-72
2023/09/06 04:42:32;;;;;;;3.83;2.17;;;;;;;14.25;100.00;96613.59;5016621;28;20222;-72
2023/09/06 04:44:58;;;;;;;7.50;2.77;;;;;;;14.12;100.00;96607.34;5021260;28;20580;-72
2023/09/06 04:47:25;;;;;;;5.20;2.83;;;;;;;14.02;100.00;96612.13;5021610;28;20550;-73
2023/09/06 04:49:52;;;;;;;5.80;2.90;;;;;;;13.93;100.00;96617.75;5019729;28;20225;-73
2023/09/06 04:52:18;;;;;;;4.53;2.73;;;;;;;14.09;100.00;96618.31;5016226;28;20223;-72
2023/09/06 04:54:45;;;;;;;6.43;2.70;;;;;;;14.19;100.00;96617.00;5023195;28;20198;-74
2023/09/06 04:57:12;;;;;;;5.07;2.57;;;;;;;14.35;100.00;96622.03;5014741;28;20290;-73
2023/09/06 04:59:39;;;;;;;4.90;2.63;;;;;;;14.07;100.00;96618.47;5020001;28;20723;-72
2023/09/06 05:02:05;;;;;;;7.65;3.13;;;;;;;14.36;100.00;96620.22;5019233;28;20589;-72
2023/09/06 05:04:32;;;;;;;7.50;2.33;;;;;;;14.35;100.00;96624.69;5017203;28;20220;-73
2023/09/06 05:06:59;;;;;;;5.38;2.58;;;;;;;14.28;100.00;96631.78;5021523;28;20202;-73
2023/09/06 05:09:25;;;;;;;4.43;2.33;;;;;;;14.24;100.00;96632.34;5022963;28;20194;-73
2023/09/06 05:11:52;;;;;;;3.72;2.38;;;;;;;14.29;100.00;96630.75;5022457;28;20289;-73
2023/09/06 05:14:20;;;;;;;6.43;2.47;;;;;;;14.59;100.00;96632.25;5025591;28;20222;-73
2023/09/06 05:16:46;;;;;;;4.30;2.42;;;;;;;14.34;100.00;96627.53;5026717;28;20198;-73
2023/09/06 05:19:13;;;;;;;3.67;2.27;;;;;;;14.44;100.00;96636.00;5026772;28;20222;-73
2023/09/06 05:21:39;;;;;;;3.30;1.75;;;;;;;14.52;100.00;96639.31;5026605;28;20206;-73
2023/09/06 05:24:06;;;;;;;3.67;2.15;;;;;;;14.59;100.00;96639.38;5026048;28;20226;-72
2023/09/06 05:26:34;;;;;;;3.95;2.10;;;;;;;14.56;100.00;96645.06;5015773;28;20205;-72
2023/09/06 05:29:00;;;;;;;5.10;2.38;;;;;;;14.40;100.00;96646.16;5024735;28;20553;-73
2023/09/06 05:31:28;;;;;;;5.17;2.70;;;;;;;14.70;100.00;96648.47;5016393;28;20224;-72
2023/09/06 05:33:54;;;;;;;3.63;2.30;;;;;;;14.52;100.00;96651.78;5022538;28;20225;-72
2023/09/06 05:36:21;;;;;;;8.35;2.88;;;;;;;14.65;100.00;96648.22;5024210;28;20202;-72
2023/09/06 05:38:47;;;;;;;5.93;2.87;;;;;;;14.69;100.00;96653.97;5026490;28;20220;-72
2023/09/06 05:41:14;;;;;;;5.38;2.60;;;;;;;14.97;100.00;96655.59;5022908;28;20199;-72
2023/09/06 05:43:40;;;;;;;5.65;2.63;;;;;;;15.13;100.00;96657.13;5021863;28;20226;-73
2023/09/06 05:46:07;;;;;;;6.07;3.22;;;;;;;15.36;100.00;96659.38;5023535;28;20705;-73
2023/09/06 05:48:35;;;;;;;5.07;2.88;;;;;;;15.68;100.00;96649.91;5021269;28;20662;-72
2023/09/06 05:51:01;;;;;;;4.68;2.42;;;;;;;15.54;100.00;96650.84;5024278;28;20233;-72
2023/09/06 05:53:29;;;;;;;6.60;3.33;;;;;;;15.59;100.00;96667.88;5027541;28;20218;-72
2023/09/06 05:55:57;;;;;;;7.78;3.28;;;;;;;15.66;100.00;96659.94;5022951;28;20202;-71
2023/09/06 05:58:23;;;;;;;9.05;3.70;;;;;;;15.79;100.00;96666.09;5017682;28;21000;-73
2023/09/06 06:00:53;;;;;;;6.72;3.15;;;;;;;16.17;100.00;96664.59;5011026;28;20580;-72
2023/09/06 06:03:20;;;;;;;8.38;4.18;;;;;;;15.91;100.00;96665.34;5013145;28;20223;-72
2023/09/06 06:05:48;;;;;;;8.50;3.47;;;;;;;16.16;100.00;96669.06;5026022;28;20206;-73
2023/09/06 06:08:14;;;;;;;10.75;4.20;;;;;;;16.16;100.00;96678.91;5023919;28;20573;-72
2023/09/06 06:10:41;;;;;;;5.70;2.88;;;;;;;16.34;100.00;96672.00;5020645;28;20237;-73
2023/09/06 06:13:08;;;;;;;8.77;3.55;;;;;;;16.45;100.00;96678.59;5010672;28;20246;-72
2023/09/06 06:15:35;;;;;;;7.13;3.20;;;;;;;16.66;100.00;96677.41;5010549;28;20245;-72
2023/09/06 06:18:02;;;;;;;7.90;3.42;;;;;;;16.86;100.00;96672.06;5010139;28;20261;-73
2023/09/06 06:20:28;;;;;;;4.60;2.75;;;;;;;16.96;100.00;96683.13;5013611;28;20202;-73
2023/09/06 06:22:56;;;;;;;8.02;3.63;;;;;;;17.19;100.00;96681.69;5014062;28;20226;-73
2023/09/06 06:25:23;;;;;;;6.30;2.72;;;;;;;17.10;100.00;96688.25;5024468;28;20209;-73
2023/09/06 06:27:51;;;;;;;5.30;2.60;;;;;;;17.10;100.00;96691.72;5019624;28;20198;-73
2023/09/06 06:30:18;;;;;;;7.18;2.88;;;;;;;17.27;100.00;96682.31;5019109;28;20206;-73
2023/09/06 06:32:45;;;;;;;15.05;3.92;;;;;;;17.08;100.00;96692.13;5020701;28;20218;-72
2023/09/06 06:35:12;;;;;;;5.30;2.88;;;;;;;17.12;100.00;96692.34;5018173;28;20265;-73
2023/09/06 06:37:38;;;;;;;6.22;3.22;;;;;;;17.54;100.00;96694.56;5021062;28;20207;-73
2023/09/06 06:40:09;;;;;;;4.10;2.50;;;;;;;17.82;100.00;96693.25;5015235;28;20226;-72
2023/09/06 06:42:35;;;;;;;4.47;2.60;;;;;;;18.31;100.00;96687.31;5025008;28;20300;-72
2023/09/06 06:45:04;;;;;;;5.85;2.58;;;;;;;18.64;100.00;96688.75;5013166;28;20256;-73
2023/09/06 06:47:31;;;;;;;4.07;2.63;;;;;;;18.65;100.00;96687.72;5018325;28;20284;-73
2023/09/06 06:50:02;;;;;;;6.32;2.88;;;;;;;18.80;100.00;96696.22;5014834;28;20579;-73
2023/09/06 06:52:30;;;;;;;3.67;2.30;;;;;;;19.00;100.00;96695.88;5017736;28;20253;-73
2023/09/06 06:54:57;;;;;;;4.53;2.63;;;;;;;19.01;100.00;96707.38;5010523;28;21016;-74
2023/09/06 06:57:25;;;;;;;4.78;2.13;;;;;;;19.41;100.00;96706.03;5006922;28;20229;-72
2023/09/06 06:59:51;;;;;;;4.82;2.15;;;;;;;19.40;100.00;96707.91;5014969;28;21232;-74
2023/09/06 07:02:18;;;;;;;5.97;2.50;;;;;;;19.14;100.00;96708.13;5016034;28;20222;-73
2023/09/06 07:04:44;;;;;;;4.78;2.15;;;;;;;19.34;100.00;96707.97;5012509;28;20837;-72
2023/09/06 07:07:11;;;;;;;3.80;2.13;;;;;;;19.39;100.00;96716.94;5010834;28;20206;-74
2023/09/06 07:09:38;;;;;;;4.43;2.88;;;;;;;19.19;100.00;96705.59;5011036;28;20206;-73
2023/09/06 07:12:05;;;;;;;6.40;2.30;;;;;;;19.36;100.00;96713.88;5011400;28;20616;-73
2023/09/06 07:14:33;;;;;;;7.90;1.98;;;;;;;19.58;100.00;96708.72;5012967;28;20217;-74
2023/09/06 07:16:59;;;;;;;4.65;2.50;;;;;;;19.49;100.00;96705.75;5014813;28;20206;-73
2023/09/06 07:19:26;;;;;;;3.55;1.85;;;;;;;19.67;100.00;96710.06;5011856;28;20762;-73
2023/09/06 07:21:53;;;;;;;7.43;2.55;;;;;;;19.71;100.00;96707.78;5018526;28;20194;-73
2023/09/06 07:24:19;;;;;;;5.75;2.25;;;;;;;19.86;100.00;96706.38;5005948;28;20273;-74
2023/09/06 07:26:46;;;;;;;4.85;2.30;;;;;;;20.12;100.00;96708.78;5003049;28;20210;-74
2023/09/06 07:29:12;;;;;;;6.25;2.80;;;;;;;19.98;100.00;96701.13;5009333;28;20205;-74
2023/09/06 07:31:40;;;;;;;4.38;2.40;;;;;;;20.16;100.00;96707.28;5013802;28;20906;-73
2023/09/06 07:34:07;;;;;;;6.63;2.42;;;;;;;20.27;100.00;96704.66;5011533;28;20317;-73
2023/09/06 07:36:33;;;;;;;2.78;2.10;;;;;;;20.20;100.00;96701.25;5011937;28;20202;-74
2023/09/06 07:39:00;;;;;;;4.57;2.40;;;;;;;20.35;100.00;96708.88;5013679;28;20223;-74
2023/09/06 07:41:27;;;;;;;4.53;2.65;;;;;;;20.36;100.00;96711.34;5012184;28;20202;-73
2023/09/06 07:43:53;;;;;;;6.18;2.20;;;;;;;20.43;100.00;96706.72;5013400;28;20222;-73
2023/09/06 07:46:24;;;;;;;5.97;1.98;;;;;;;20.43;100.00;96708.56;5013046;28;20202;-73
2023/09/06 07:48:52;;;;;;;5.03;2.55;;;;;;;20.65;100.00;96705.19;5011742;28;20208;-75
2023/09/06 07:51:18;;;;;;;5.57;2.28;;;;;;;20.65;100.00;96699.81;5022806;28;20237;-73
2023/09/06 07:53:45;;;;;;;3.53;2.03;;;;;;;20.91;100.00;96700.28;5010140;28;20664;-75
2023/09/06 07:56:13;;;;;;;5.32;2.42;;;;;;;20.84;100.00;96693.41;5010754;28;20213;-74
2023/09/06 07:58:39;;;;;;;3.60;2.28;;;;;;;20.68;100.00;96703.91;5008490;28;20210;-73
2023/09/06 08:01:06;;;;;;;4.95;2.55;;;;;;;20.76;100.00;96701.78;5008790;28;20213;-73
2023/09/06 08:03:34;;;;;;;7.40;2.40;;;;;;;21.18;100.00;96704.19;5006340;28;20313;-73
2023/09/06 08:06:04;;;;;;;4.03;1.85;;;;;;;21.02;100.00;96706.72;5002040;28;20218;-74
2023/09/06 08:08:30;;;;;;;5.03;2.40;;;;;;;21.05;100.00;96701.72;4998351;28;20201;-74
2023/09/06 08:10:57;;;;;;;6.68;2.78;;;;;;;20.93;100.00;96702.75;4996938;28;20209;-74
2023/09/06 08:13:24;;;;;;;3.58;2.35;;;;;;;20.85;100.00;96706.56;5000421;28;20226;-73
2023/09/06 08:15:52;;;;;;;4.00;2.50;;;;;;;20.40;100.00;96714.38;5010093;28;20205;-73
2023/09/06 08:18:19;;;;;;;3.90;2.00;;;;;;;20.96;100.00;96707.63;5009840;28;20206;-73
2023/09/06 08:20:45;;;;;;;4.32;2.78;;;;;;;20.88;100.00;96707.97;5010561;28;20218;-73
2023/09/06 08:23:13;;;;;;;5.22;2.28;;;;;;;21.17;100.00;96715.94;4999405;28;20230;-73
2023/09/06 08:25:40;;;;;;;4.65;2.55;;;;;;;21.33;100.00;96719.81;4997653;28;20202;-73
2023/09/06 08:28:07;;;;;;;4.07;2.10;;;;;;;21.50;100.00;96714.38;4993497;28;20210;-73
2023/09/06 08:30:33;;;;;;;4.05;2.55;;;;;;;21.50;100.00;96711.69;4995296;28;20202;-73
2023/09/06 08:33:00;;;;;;;5.63;2.05;;;;;;;21.89;100.00;96715.53;4995246;28;20222;-72
2023/09/06 08:35:27;;;;;;;4.43;2.28;;;;;;;21.76;100.00;96719.25;4999472;28;21158;-73
2023/09/06 08:37:54;;;;;;;3.85;1.95;;;;;;;21.98;100.00;96717.59;5011168;28;20206;-72
2023/09/06 08:40:22;;;;;;;6.78;2.50;;;;;;;22.03;100.00;96708.84;5010557;28;20218;-72
2023/09/06 08:42:49;;;;;;;5.18;2.75;;;;;;;21.99;100.00;96718.44;5011164;28;20229;-73
2023/09/06 08:45:22;;;;;;;2.95;1.83;;;;;;;22.32;100.00;96712.19;5011105;28;20611;-72
2023/09/06 08:47:49;;;;;;;5.82;2.50;;;;;;;22.44;100.00;96720.22;5013669;28;20198;-73
2023/09/06 08:50:17;;;;;;;6.00;2.95;;;;;;;22.45;100.00;96714.59;5014102;28;20198;-73
2023/09/06 08:52:45;;;;;;;4.82;2.80;;;;;;;22.39;100.00;96717.41;5015176;28;20222;-73
2023/09/06 08:55:12;;;;;;;6.22;2.40;;;;;;;22.49;100.00;96723.84;5013279;28;20671;-73
2023/09/06 08:57:41;;;;;;;7.30;2.30;;;;;;;22.73;100.00;96722.66;5015870;28;20690;-73
2023/09/06 09:00:09;;;;;;;4.13;2.42;;;;;;;22.85;100.00;96726.13;5009590;28;20222;-73
2023/09/06 09:02:37;;;;;;;6.60;2.17;;;;;;;22.94;100.00;96730.06;5015931;28;20221;-73
2023/09/06 09:05:06;;;;;;;3.95;2.20;;;;;;;23.15;100.00;96729.38;5008098;28;20201;-73
2023/09/06 09:07:32;;;;;;;4.25;2.13;;;;;;;23.36;100.00;96727.59;5000959;28;20204;-73
2023/09/06 09:10:01;;;;;;;4.40;2.40;;;;;;;23.39;100.00;96731.69;5002180;28;20206;-73
2023/09/06 09:12:29;;;;;;;3.78;2.15;;;;;;;23.50;98.56;96731.59;5004215;28;20712;-73
2023/09/06 09:14:57;;;;;;;3.63;2.30;;;;;;;23.27;100.00;96724.75;5002116;28;20268;-73
2023/09/06 09:17:25;;;;;;;3.45;2.47;;;;;;;22.97;100.00;96730.38;5013186;28;20206;-72
2023/09/06 09:19:53;;;;;;;6.10;3.00;;;;;;;23.01;100.00;96722.69;5004721;28;20232;-73
2023/09/06 09:22:24;;;;;;;5.47;2.80;;;;;;;23.42;100.00;96728.50;4999040;28;21233;-73
2023/09/06 09:24:51;;;;;;;5.05;2.85;;;;;;;22.97;100.00;96721.50;5001588;28;20800;-73
2023/09/06 09:27:19;;;;;;;7.20;2.72;;;;;;;23.27;100.00;96722.06;5003258;28;20202;-72
2023/09/06 09:29:47;;;;;;;7.07;2.78;;;;;;;23.50;100.00;96715.47;5012656;28;20728;-73
2023/09/06 09:32:15;;;;;;;5.82;3.20;;;;;;;23.61;100.00;96724.50;5001620;28;20206;-73
2023/09/06 09:34:42;;;;;;;4.82;2.47;;;;;;;23.36;100.00;96713.34;5003900;28;20206;-73
2023/09/06 09:37:10;;;;;;;7.20;3.03;;;;;;;23.49;100.00;96716.50;5001382;28;20207;-73
2023/09/06 09:39:37;;;;;;;8.60;3.72;;;;;;;23.45;100.00;96720.75;5010319;28;20592;-73
2023/09/06 09:42:04;;;;;;;5.03;2.47;;;;;;;23.21;100.00;96720.34;5015472;28;20221;-72
2023/09/06 09:44:31;;;;;;;5.65;3.25;;;;;;;23.19;100.00;96725.16;5004439;28;20763;-73
2023/09/06 09:46:58;;;;;;;6.18;2.90;;;;;;;22.96;100.00;96711.81;5016548;28;20260;-73
2023/09/06 09:49:27;;;;;;;6.07;3.15;;;;;;;23.79;100.00;96722.41;5007933;28;20221;-73
2023/09/06 09:51:53;;;;;;;4.65;2.58;;;;;;;23.35;100.00;96723.28;5004360;28;20214;-73
2023/09/06 09:54:23;;;;;;;5.75;3.17;;;;;;;23.64;100.00;96716.75;5007349;28;20225;-73
2023/09/06 09:57:01;;;;;;;8.77;3.53;;;;;;;24.09;100.00;96722.81;5004321;28;20210;-73
2023/09/06 09:59:27;;;;;;;5.60;3.13;;;;;;;23.51;100.00;96718.94;5005073;28;20240;-73
2023/09/06 10:01:57;;;;;;;5.97;2.88;;;;;;;23.77;98.45;96713.75;5003462;28;20214;-73
2023/09/06 10:04:27;;;;;;;5.97;3.17;;;;;;;24.09;100.00;96712.84;4995612;28;20241;-73
2023/09/06 10:06:55;;;;;;;5.82;3.05;;;;;;;23.98;100.00;96712.97;4996021;28;20206;-73
2023/09/06 10:09:22;;;;;;;5.63;3.08;;;;;;;23.93;100.00;96713.72;4996692;28;20223;-73
2023/09/06 10:11:52;;;;;;;5.70;3.00;;;;;;;24.35;100.00;96719.38;4995973;28;20763;-73
2023/09/06 10:14:19;;;;;;;6.00;3.20;;;;;;;24.14;100.00;96714.81;4996421;28;21195;-73
2023/09/06 10:16:49;;;;;;;5.57;3.30;;;;;;;24.37;98.75;96711.88;4995983;28;20206;-73
2023/09/06 10:19:16;;;;;;;5.43;2.95;;;;;;;24.12;100.00;96716.91;4995864;28;20207;-73
2023/09/06 10:21:46;;;;;;;6.22;3.33;;;;;;;24.34;100.00;96717.78;4995029;28;20195;-73
2023/09/06 10:24:18;;;;;;;5.53;3.08;;;;;;;24.18;98.57;96715.94;4995763;28;20985;-73
2023/09/06 10:26:47;;;;;;;6.93;2.95;;;;;;;24.24;100.00;96723.03;4996504;28;20207;-73
2023/09/06 10:29:18;;;;;;;6.40;3.00;;;;;;;24.64;100.00;96703.63;4997378;28;20214;-73
2023/09/06 10:31:49;;;;;;;7.40;3.03;;;;;;;24.87;98.78;96715.97;4994538;28;20582;-73
2023/09/06 10:34:16;;;;;;;6.20;3.10;;;;;;;24.69;98.55;96713.63;4996843;28;20222;-73
2023/09/06 10:36:53;;;;;;;6.43;3.17;;;;;;;24.90;95.00;96694.72;4996192;28;20209;-73
2023/09/06 10:39:22;;;;;;;6.30;3.25;;;;;;;24.90;100.00;96705.50;4995394;28;20324;-73
2023/09/06 10:42:17;;;;;;;5.47;2.97;;;;;;;25.42;95.42;96706.53;4994950;28;20202;-73
2023/09/06 10:45:17;;;;;;;7.25;3.17;;;;;;;25.65;95.53;96704.31;4995591;28;20205;-73
2023/09/06 10:47:43;;;;;;;6.10;3.25;;;;;;;24.99;98.85;96697.78;4995356;28;20214;-73
2023/09/06 10:50:17;;;;;;;5.30;3.17;;;;;;;25.26;96.65;96699.41;4995912;28;20202;-73
2023/09/06 10:52:48;;;;;;;6.03;3.08;;;;;;;25.49;95.61;96702.53;4994654;28;20225;-73
2023/09/06 10:55:20;;;;;;;6.90;3.72;;;;;;;25.06;93.36;96693.81;4993743;28;20327;-72
2023/09/06 10:57:52;;;;;;;3.55;2.55;;;;;;;25.49;98.49;96693.66;4994193;28;20206;-73
2023/09/06 11:00:21;;;;;;;4.55;2.50;;;;;;;25.50;97.79;96696.06;4994387;28;20230;-73
2023/09/06 11:03:14;;;;;;;8.15;3.25;;;;;;;25.95;92.80;96691.00;4994499;28;20258;-73
2023/09/06 11:05:42;;;;;;;4.10;2.38;;;;;;;26.04;93.19;96692.13;4994414;28;20206;-73
2023/09/06 11:08:22;;;;;;;7.13;3.25;;;;;;;25.71;93.00;96695.16;4992986;28;20213;-73
2023/09/06 11:10:50;;;;;;;6.20;2.72;;;;;;;25.73;88.17;96689.53;4995011;28;20381;-74
2023/09/06 11:13:18;;;;;;;4.80;2.40;;;;;;;25.93;93.55;96679.69;4995007;28;20227;-73
2023/09/06 11:15:44;;;;;;;8.85;2.88;;;;;;;26.04;91.60;96682.16;4995858;28;20250;-73
2023/09/06 11:18:13;;;;;;;6.15;2.70;;;;;;;25.98;90.95;96683.22;4995841;28;20229;-72
2023/09/06 11:20:42;;;;;;;6.07;2.90;;;;;;;25.81;89.19;96679.03;4996034;28;20226;-73
2023/09/06 11:23:10;;;;;;;4.57;2.38;;;;;;;26.21;89.75;96677.38;4997115;28;20229;-73
2023/09/06 11:25:38;;;;;;;6.03;2.60;;;;;;;25.96;87.58;96684.53;4994963;28;21210;-73
2023/09/06 11:28:16;;;;;;;5.47;2.30;;;;;;;26.38;87.00;96674.50;4994149;28;20987;-73
2023/09/06 11:30:45;;;;;;;4.13;2.30;;;;;;;25.76;84.87;96679.00;4996299;28;20540;-73
2023/09/06 11:33:11;;;;;;;4.28;2.05;;;;;;;25.94;85.75;96675.88;4995567;28;20226;-73
2023/09/06 11:35:45;;;;;;;4.05;2.33;;;;;;;26.29;85.95;96663.34;4995308;28;20211;-73